Time;durP1;ratioP1;P1;durP2;ratioP2;P2;SDS_P1;SDS_P2;PMS_P1;PMS_P2;Temp;Humidity;BMP_temperature;BMP_pressure;BME280_temperature;BME280_humidity;BME280_pressure;Samples;Min_cycle;Max_cycle;Signal;HPM_P1;HPM_P2
2022/04/28 00:01:55;;;;;;;2.83;1.88;;;20.80;39.00;;;;;;4971146;28;20050;-80
2022/04/28 00:04:21;;;;;;;1.83;1.40;;;20.80;38.90;;;;;;4962058;28;20050;-80
2022/04/28 00:06:46;;;;;;;2.75;1.60;;;20.80;38.90;;;;;;4962073;28;20053;-80
2022/04/28 00:09:12;;;;;;;2.92;1.33;;;20.80;38.90;;;;;;4960489;28;20038;-80
2022/04/28 00:11:38;;;;;;;3.35;1.50;;;20.80;38.90;;;;;;4971540;28;20038;-80
2022/04/28 00:14:03;;;;;;;2.75;1.73;;;20.80;38.90;;;;;;4958055;28;20573;-80
2022/04/28 00:16:29;;;;;;;3.10;1.90;;;20.80;38.80;;;;;;4973187;28;20047;-80
2022/04/28 00:18:55;;;;;;;3.38;1.70;;;20.80;38.90;;;;;;4971659;28;20076;-80
2022/04/28 00:21:20;;;;;;;2.95;1.58;;;20.70;38.70;;;;;;4958320;28;20101;-80
2022/04/28 00:23:46;;;;;;;3.05;1.70;;;20.70;38.80;;;;;;4970308;28;20042;-80
2022/04/28 00:26:12;;;;;;;3.72;1.65;;;20.70;38.70;;;;;;4955639;28;20077;-80
2022/04/28 00:28:38;;;;;;;2.55;1.50;;;20.70;38.70;;;;;;4957470;28;20037;-80
2022/04/28 00:31:04;;;;;;;3.17;1.70;;;20.70;38.70;;;;;;4969048;28;20076;-80
2022/04/28 00:33:29;;;;;;;3.22;1.65;;;20.70;38.60;;;;;;4972337;28;20198;-80
2022/04/28 00:35:56;;;;;;;3.25;1.75;;;20.70;38.60;;;;;;4962241;28;20085;-79
2022/04/28 00:38:21;;;;;;;3.20;1.70;;;20.70;38.60;;;;;;4957540;28;20038;-79
2022/04/28 00:40:47;;;;;;;2.80;1.70;;;20.70;38.60;;;;;;4953625;28;20212;-80
2022/04/28 00:43:19;;;;;;;3.88;1.70;;;20.70;38.60;;;;;;4977307;28;20050;-80
2022/04/28 00:45:48;;;;;;;2.17;1.42;;;20.70;38.60;;;;;;4956116;28;20066;-80
2022/04/28 00:51:01;;;;;;;2.15;1.35;;;20.70;38.50;;;;;;4971576;28;20379;-80
2022/04/28 00:53:33;;;;;;;2.50;1.70;;;20.60;38.50;;;;;;4972927;28;20030;-80
2022/04/28 00:56:00;;;;;;;1.98;1.60;;;20.60;38.50;;;;;;4959548;28;20042;-80
2022/04/28 00:58:26;;;;;;;3.50;1.90;;;20.60;38.50;;;;;;4973555;28;20042;-81
2022/04/28 01:00:55;;;;;;;4.32;1.83;;;20.60;38.50;;;;;;4960234;28;20050;-80
2022/04/28 01:03:22;;;;;;;2.60;1.67;;;20.60;38.40;;;;;;4967569;28;20049;-80
2022/04/28 01:05:49;;;;;;;2.67;1.60;;;20.60;38.40;;;;;;4958753;28;20510;-80
2022/04/28 01:08:15;;;;;;;2.63;1.63;;;20.60;38.40;;;;;;4959954;28;20053;-80
2022/04/28 01:10:41;;;;;;;2.67;1.50;;;20.60;38.40;;;;;;4964921;28;20057;-80
2022/04/28 01:13:07;;;;;;;4.30;1.67;;;20.60;38.40;;;;;;4959440;28;20038;-80
2022/04/28 01:15:43;;;;;;;2.10;1.50;;;20.60;38.40;;;;;;4977339;28;20042;-80
2022/04/28 01:18:09;;;;;;;2.42;1.50;;;20.50;38.30;;;;;;4962308;28;20081;-80
2022/04/28 01:20:34;;;;;;;3.10;1.77;;;20.50;38.40;;;;;;4975393;28;20533;-81
2022/04/28 01:23:00;;;;;;;3.72;1.77;;;20.50;38.30;;;;;;4966233;28;20042;-80
2022/04/28 01:25:26;;;;;;;1.88;1.50;;;20.50;38.30;;;;;;4974772;28;20038;-80
2022/04/28 01:27:51;;;;;;;2.78;1.77;;;20.50;38.30;;;;;;4975001;28;20042;-80
2022/04/28 01:30:17;;;;;;;3.80;1.77;;;20.50;38.30;;;;;;4977603;28;20445;-80
2022/04/28 01:32:43;;;;;;;1.92;1.33;;;20.50;38.30;;;;;;4960378;28;20457;-80
2022/04/28 01:35:09;;;;;;;2.67;1.73;;;20.50;38.30;;;;;;4973912;28;20062;-81
2022/04/28 01:37:35;;;;;;;2.67;1.63;;;20.50;38.30;;;;;;4976876;28;20038;-80
2022/04/28 01:40:00;;;;;;;3.08;1.50;;;20.50;38.20;;;;;;4959734;28;20073;-81
2022/04/28 01:42:26;;;;;;;3.38;1.92;;;20.50;38.20;;;;;;4972701;28;20046;-81
2022/04/28 01:44:52;;;;;;;3.45;1.67;;;20.50;38.20;;;;;;4971899;28;20125;-81
2022/04/28 01:47:18;;;;;;;2.10;1.73;;;20.40;38.20;;;;;;4974103;28;20399;-80
2022/04/28 01:49:44;;;;;;;3.28;1.70;;;20.50;38.30;;;;;;4958618;28;20052;-80
2022/04/28 01:55:00;;;;;;;2.67;1.60;;;20.40;38.10;;;;;;4974407;28;20518;-81
2022/04/28 01:57:27;;;;;;;3.47;1.60;;;20.40;38.10;;;;;;4973559;28;20113;-80
2022/04/28 01:59:53;;;;;;;2.10;1.35;;;20.40;38.10;;;;;;4973282;28;21194;-80
2022/04/28 02:02:21;;;;;;;3.03;1.60;;;20.40;38.10;;;;;;4952908;28;20054;-81
2022/04/28 02:04:46;;;;;;;1.92;1.48;;;20.40;38.10;;;;;;4948831;28;20134;-80
2022/04/28 02:07:13;;;;;;;3.30;1.67;;;20.40;38.10;;;;;;4953698;28;20652;-80
2022/04/28 02:09:40;;;;;;;3.47;1.77;;;20.40;38.00;;;;;;4962807;28;20418;-81
2022/04/28 02:12:06;;;;;;;3.10;1.70;;;20.40;38.00;;;;;;4954462;28;20063;-80
2022/04/28 02:14:32;;;;;;;2.83;1.70;;;20.40;38.00;;;;;;4972528;28;20547;-80
2022/04/28 02:16:57;;;;;;;3.13;1.85;;;20.40;38.00;;;;;;4963655;28;20053;-81
2022/04/28 02:19:24;;;;;;;2.95;1.60;;;20.40;38.00;;;;;;4970958;28;20055;-80
2022/04/28 02:21:50;;;;;;;3.03;1.60;;;20.30;37.90;;;;;;4968673;28;20129;-80
2022/04/28 02:24:16;;;;;;;2.60;1.50;;;20.40;38.00;;;;;;4957811;28;20518;-80
2022/04/28 02:26:41;;;;;;;3.55;1.50;;;20.40;37.90;;;;;;4974201;28;20601;-80
2022/04/28 02:29:07;;;;;;;3.33;1.40;;;20.30;37.90;;;;;;4972330;28;20410;-81
2022/04/28 02:31:32;;;;;;;2.88;1.42;;;20.30;37.90;;;;;;4958546;28;20046;-81
2022/04/28 02:33:58;;;;;;;2.63;1.70;;;20.30;37.80;;;;;;4971956;28;20047;-81
2022/04/28 02:36:24;;;;;;;2.72;1.45;;;20.30;37.80;;;;;;4973706;28;20493;-81
2022/04/28 02:38:51;;;;;;;2.78;1.92;;;20.30;37.80;;;;;;4957014;28;20043;-80
2022/04/28 02:41:20;;;;;;;3.53;1.90;;;20.30;37.70;;;;;;4965106;28;20521;-81
2022/04/28 02:43:47;;;;;;;3.35;1.80;;;20.30;37.80;;;;;;4957831;28;20050;-81
2022/04/28 02:46:13;;;;;;;3.72;1.73;;;20.30;37.80;;;;;;4974093;28;20466;-80
2022/04/28 02:48:39;;;;;;;2.70;1.50;;;20.30;37.70;;;;;;4964739;28;20144;-80
2022/04/28 02:51:04;;;;;;;2.67;1.70;;;20.30;37.70;;;;;;4974203;28;20058;-81
2022/04/28 02:53:30;;;;;;;2.30;1.60;;;20.30;37.70;;;;;;4957493;28;20042;-80
2022/04/28 02:55:55;;;;;;;2.58;1.45;;;20.30;37.70;;;;;;4965530;28;20052;-80
2022/04/28 02:58:21;;;;;;;2.70;1.77;;;20.30;37.60;;;;;;4957028;28;20031;-80
2022/04/28 03:00:46;;;;;;;2.72;1.65;;;20.20;37.60;;;;;;4957151;28;20050;-81
2022/04/28 03:03:12;;;;;;;2.85;1.70;;;20.20;37.60;;;;;;4957578;28;20054;-81
2022/04/28 03:11:06;;;;;;;2.83;1.77;;;20.20;37.50;;;;;;4971148;28;20063;-81
2022/04/28 03:13:32;;;;;;;2.72;1.55;;;20.20;37.50;;;;;;4958635;28;20115;-80
2022/04/28 03:15:59;;;;;;;2.42;1.40;;;20.20;37.50;;;;;;4956830;28;20155;-80
2022/04/28 03:18:25;;;;;;;3.47;1.63;;;20.20;37.60;;;;;;4956607;28;20046;-80
2022/04/28 03:20:51;;;;;;;2.78;1.80;;;20.10;37.50;;;;;;4957176;28;20052;-80
2022/04/28 03:23:17;;;;;;;2.60;1.45;;;20.10;37.40;;;;;;4959038;28;20490;-80
2022/04/28 03:25:42;;;;;;;4.18;1.83;;;20.20;37.50;;;;;;4974296;28;20458;-80
2022/04/28 03:28:08;;;;;;;2.90;1.60;;;20.10;37.40;;;;;;4971558;28;20038;-81
2022/04/28 03:30:34;;;;;;;2.60;1.63;;;20.20;37.40;;;;;;4971988;28;20059;-80
2022/04/28 03:33:01;;;;;;;2.67;1.80;;;20.20;37.40;;;;;;4958331;28;20041;-80
2022/04/28 03:35:26;;;;;;;3.03;1.58;;;20.20;37.40;;;;;;4971765;28;20046;-80
2022/04/28 03:37:52;;;;;;;3.00;1.80;;;20.20;37.40;;;;;;4971007;28;20749;-80
2022/04/28 03:40:18;;;;;;;2.47;1.48;;;20.20;37.30;;;;;;4956892;28;20062;-80
2022/04/28 03:42:47;;;;;;;3.25;1.55;;;20.20;37.30;;;;;;4963687;28;20109;-80
2022/04/28 03:45:13;;;;;;;2.60;1.77;;;20.10;37.30;;;;;;4972064;28;20051;-80
2022/04/28 03:47:39;;;;;;;1.77;1.63;;;20.10;37.30;;;;;;4972603;28;20112;-80
2022/04/28 03:50:06;;;;;;;1.88;1.70;;;20.10;37.30;;;;;;4958765;28;20487;-81
2022/04/28 03:52:31;;;;;;;2.08;1.70;;;20.10;37.30;;;;;;4972593;28;20281;-80
2022/04/28 03:54:57;;;;;;;2.38;1.52;;;20.10;37.30;;;;;;4971855;28;20070;-80
2022/04/28 03:57:23;;;;;;;1.70;1.50;;;20.10;37.30;;;;;;4962369;28;20086;-80
2022/04/28 03:59:49;;;;;;;2.92;1.90;;;20.10;37.30;;;;;;4973689;28;20039;-81
2022/04/28 04:02:14;;;;;;;3.75;1.75;;;20.10;37.30;;;;;;4966411;28;20407;-81
2022/04/28 04:04:40;;;;;;;2.90;1.60;;;20.10;37.30;;;;;;4968979;28;20043;-81
2022/04/28 04:07:07;;;;;;;2.90;1.70;;;20.10;37.30;;;;;;4956136;28;20403;-80
2022/04/28 04:09:32;;;;;;;4.75;1.75;;;20.10;37.30;;;;;;4973959;28;20070;-80
2022/04/28 04:11:58;;;;;;;3.67;1.83;;;20.10;37.30;;;;;;4956753;28;20564;-80
2022/04/28 04:14:24;;;;;;;2.63;1.65;;;20.10;37.30;;;;;;4973387;28;20046;-80
2022/04/28 04:16:49;;;;;;;3.38;2.00;;;20.10;37.40;;;;;;4972180;28;20051;-80
2022/04/28 04:19:15;;;;;;;2.72;1.70;;;20.10;37.30;;;;;;4974087;28;20045;-80
2022/04/28 04:21:41;;;;;;;2.53;1.70;;;20.00;37.30;;;;;;4965260;28;20512;-80
2022/04/28 04:24:07;;;;;;;2.70;1.55;;;20.00;37.30;;;;;;4972788;28;20104;-81
2022/04/28 04:26:32;;;;;;;3.38;1.80;;;20.00;37.30;;;;;;4972663;28;20749;-80
2022/04/28 04:28:58;;;;;;;3.55;1.70;;;20.00;37.40;;;;;;4974484;28;20038;-80
2022/04/28 04:34:08;;;;;;;2.40;1.63;;;20.00;37.40;;;;;;4978249;28;20055;-80
2022/04/28 04:36:34;;;;;;;4.43;1.80;;;20.00;37.40;;;;;;4962068;28;20045;-80
2022/04/28 04:38:59;;;;;;;2.20;1.63;;;20.00;37.40;;;;;;4978879;28;20172;-80
2022/04/28 04:41:25;;;;;;;2.95;1.83;;;20.00;37.40;;;;;;4974777;28;20042;-81
2022/04/28 04:43:51;;;;;;;2.75;1.60;;;20.00;37.50;;;;;;4964527;28;20771;-79
2022/04/28 04:46:16;;;;;;;4.78;1.70;;;20.00;37.50;;;;;;4959445;28;20042;-79
2022/04/28 04:48:42;;;;;;;3.97;1.70;;;20.00;37.60;;;;;;4975636;28;21003;-79
2022/04/28 04:51:07;;;;;;;3.53;1.92;;;20.00;37.60;;;;;;4976511;28;20475;-78
2022/04/28 04:53:33;;;;;;;2.65;1.55;;;20.00;37.80;;;;;;4972538;28;20093;-79
2022/04/28 04:55:59;;;;;;;2.88;1.52;;;20.00;37.80;;;;;;4958877;28;20034;-80
2022/04/28 04:58:24;;;;;;;3.78;1.45;;;20.00;38.10;;;;;;4971466;28;20414;-80
2022/04/28 05:00:51;;;;;;;4.30;1.90;;;20.00;38.20;;;;;;4960468;28;20038;-80
2022/04/28 05:03:17;;;;;;;3.03;1.60;;;20.00;38.30;;;;;;4966770;28;20046;-80
2022/04/28 05:05:44;;;;;;;2.92;1.67;;;20.00;38.50;;;;;;4976460;28;20132;-81
2022/04/28 05:08:10;;;;;;;2.33;1.50;;;20.00;38.50;;;;;;4975847;28;20051;-79
2022/04/28 05:10:36;;;;;;;4.57;1.90;;;20.00;38.40;;;;;;4983824;28;20045;-79
2022/04/28 05:13:01;;;;;;;2.95;1.30;;;20.00;38.40;;;;;;4974362;28;20104;-79
2022/04/28 05:15:27;;;;;;;4.03;1.63;;;20.00;38.70;;;;;;4973752;28;20038;-80
2022/04/28 05:17:53;;;;;;;3.47;1.30;;;20.10;38.80;;;;;;4974804;28;20138;-79
2022/04/28 05:20:18;;;;;;;2.28;1.42;;;20.10;38.80;;;;;;4971399;28;20046;-78
2022/04/28 05:22:44;;;;;;;3.30;1.50;;;20.10;38.80;;;;;;4956769;28;20164;-80
2022/04/28 05:25:09;;;;;;;4.25;1.50;;;20.10;38.90;;;;;;4956628;28;20129;-81
2022/04/28 05:27:36;;;;;;;2.95;1.77;;;20.10;39.00;;;;;;4958013;28;20466;-83
2022/04/28 05:30:02;;;;;;;5.13;1.77;;;20.20;39.20;;;;;;4956590;28;20043;-80
2022/04/28 05:32:28;;;;;;;3.25;1.35;;;20.10;39.10;;;;;;4961110;28;20574;-80
2022/04/28 05:34:53;;;;;;;3.08;1.70;;;20.20;39.30;;;;;;4977420;28;20042;-78
2022/04/28 05:37:20;;;;;;;4.10;1.50;;;20.20;39.40;;;;;;4972209;28;20037;-80
2022/04/28 05:39:46;;;;;;;5.93;1.45;;;20.20;39.40;;;;;;4960407;28;20530;-81
2022/04/28 05:42:12;;;;;;;3.08;1.30;;;20.20;39.40;;;;;;4960027;28;20129;-80
2022/04/28 05:47:24;;;;;;;4.70;1.67;;;20.10;39.50;;;;;;4976131;28;20488;-80
2022/04/28 05:49:50;;;;;;;2.63;1.20;;;20.20;39.60;;;;;;4965275;28;20081;-80
2022/04/28 05:52:16;;;;;;;2.10;1.38;;;20.20;39.60;;;;;;4965513;28;20072;-80
2022/04/28 05:54:42;;;;;;;6.03;1.58;;;20.20;39.70;;;;;;4959814;28;20092;-80
2022/04/28 05:57:07;;;;;;;3.53;1.60;;;20.20;39.60;;;;;;4974218;28;20046;-80
2022/04/28 05:59:33;;;;;;;4.10;1.70;;;20.20;39.60;;;;;;4961334;28;20099;-80
2022/04/28 06:01:59;;;;;;;5.15;1.63;;;20.20;39.70;;;;;;4959132;28;20599;-80
2022/04/28 06:04:25;;;;;;;2.28;1.50;;;20.20;39.70;;;;;;4976543;28;20082;-79
2022/04/28 06:06:51;;;;;;;2.35;1.33;;;20.20;39.70;;;;;;4974118;28;20038;-78
2022/04/28 06:09:17;;;;;;;4.00;1.70;;;20.20;39.60;;;;;;4965901;28;20039;-82
2022/04/28 06:11:43;;;;;;;4.50;1.38;;;20.20;39.50;;;;;;4962886;28;20046;-80
2022/04/28 06:14:09;;;;;;;3.50;1.88;;;20.20;39.60;;;;;;4973230;28;20050;-82
2022/04/28 06:16:35;;;;;;;4.68;2.08;;;20.20;40.40;;;;;;4973217;28;20529;-81
2022/04/28 06:19:00;;;;;;;3.95;1.45;;;20.20;39.50;;;;;;4956947;28;20043;-80
2022/04/28 06:21:26;;;;;;;4.25;1.50;;;20.20;39.60;;;;;;4965096;28;20042;-81
2022/04/28 06:23:52;;;;;;;2.95;1.65;;;20.20;39.70;;;;;;4965286;28;20181;-82
2022/04/28 06:26:20;;;;;;;4.93;1.73;;;20.20;39.50;;;;;;4976660;28;20054;-86
2022/04/28 06:28:46;;;;;;;3.45;1.85;;;20.20;39.50;;;;;;4971632;28;20049;-82
2022/04/28 06:31:11;;;;;;;2.85;1.48;;;20.20;39.50;;;;;;4964884;28;20055;-81
2022/04/28 06:33:41;;;;;;;3.10;1.60;;;20.20;39.40;;;;;;4973108;28;20816;-81
2022/04/28 06:36:07;;;;;;;5.85;1.70;;;20.20;39.50;;;;;;4949986;28;20070;-82
2022/04/28 06:38:32;;;;;;;2.97;1.65;;;20.20;39.50;;;;;;4973660;28;20491;-81
2022/04/28 06:40:58;;;;;;;3.38;1.42;;;20.20;39.50;;;;;;4957642;28;20042;-81
2022/04/28 06:43:24;;;;;;;2.30;1.60;;;20.20;39.40;;;;;;4958277;28;20159;-81
2022/04/28 06:48:47;;;;;;;3.92;1.70;;;20.20;39.40;;;;;;4961288;28;20038;-81
2022/04/28 06:51:13;;;;;;;4.28;1.80;;;20.20;39.40;;;;;;4971860;28;20054;-81
2022/04/28 06:53:39;;;;;;;5.63;1.80;;;20.20;39.40;;;;;;4959356;28;20046;-81
2022/04/28 06:56:07;;;;;;;3.72;1.70;;;20.20;39.30;;;;;;4960618;28;20072;-85
2022/04/28 06:58:34;;;;;;;2.85;1.30;;;20.30;39.30;;;;;;4957319;28;20039;-81
2022/04/28 07:00:59;;;;;;;2.83;1.40;;;20.20;39.30;;;;;;4981689;28;20043;-81
2022/04/28 07:03:25;;;;;;;4.18;1.60;;;20.30;39.30;;;;;;4959460;28;20046;-81
2022/04/28 07:05:53;;;;;;;3.30;1.70;;;20.20;39.20;;;;;;4976058;28;20045;-81
2022/04/28 07:08:19;;;;;;;4.20;1.70;;;20.30;39.30;;;;;;4963925;28;20093;-81
2022/04/28 07:10:44;;;;;;;3.17;1.60;;;20.30;39.20;;;;;;4957381;28;20034;-81
2022/04/28 07:13:10;;;;;;;2.55;1.45;;;20.30;39.10;;;;;;4963521;28;20410;-81
2022/04/28 07:15:37;;;;;;;3.70;1.90;;;20.30;39.30;;;;;;4974626;28;20061;-82
2022/04/28 07:18:03;;;;;;;3.15;1.55;;;20.30;39.30;;;;;;4974156;28;20062;-85
2022/04/28 07:20:31;;;;;;;2.88;1.30;;;20.30;39.20;;;;;;4956505;28;20052;-83
2022/04/28 07:22:59;;;;;;;4.03;1.55;;;20.30;39.90;;;;;;4956185;28;20410;-84
2022/04/28 07:25:28;;;;;;;3.65;1.75;;;20.30;39.10;;;;;;4973978;28;20089;-83
2022/04/28 07:27:55;;;;;;;3.08;1.40;;;20.20;39.10;;;;;;4962686;28;20131;-84
2022/04/28 07:30:21;;;;;;;2.75;1.38;;;20.30;39.20;;;;;;4972170;28;20043;-84
2022/04/28 07:32:53;;;;;;;3.30;1.30;;;20.30;39.30;;;;;;4972817;28;20057;-82
2022/04/28 07:35:21;;;;;;;3.95;1.63;;;20.20;39.30;;;;;;4973612;28;20045;-84
2022/04/28 07:37:47;;;;;;;2.30;1.40;;;20.30;39.50;;;;;;4956657;28;20509;-84
2022/04/28 07:40:12;;;;;;;4.10;1.60;;;20.30;39.50;;;;;;4958734;28;20038;-84
2022/04/28 07:42:38;;;;;;;4.53;1.77;;;20.30;39.60;;;;;;4965261;28;20129;-83
2022/04/28 07:45:07;;;;;;;4.47;1.75;;;20.30;39.50;;;;;;4975596;28;20050;-87
2022/04/28 07:47:33;;;;;;;3.45;1.63;;;20.20;39.50;;;;;;4965958;28;20054;-82
2022/04/28 07:49:58;;;;;;;4.65;1.58;;;20.30;39.60;;;;;;4974063;28;20787;-82
2022/04/28 07:52:24;;;;;;;4.88;1.50;;;20.30;39.70;;;;;;4965161;28;20049;-80
2022/04/28 07:54:50;;;;;;;3.63;1.58;;;20.30;39.60;;;;;;4958169;28;20129;-80
2022/04/28 07:57:15;;;;;;;4.22;1.75;;;20.30;39.50;;;;;;4961747;28;20039;-80
2022/04/28 07:59:41;;;;;;;4.85;1.55;;;20.30;39.50;;;;;;4958255;28;20410;-81
2022/04/28 08:02:11;;;;;;;6.15;2.20;;;20.20;39.70;;;;;;4971400;28;20454;-80
2022/04/28 08:04:38;;;;;;;4.03;1.67;;;20.30;39.60;;;;;;4968696;28;20192;-81
2022/04/28 08:07:04;;;;;;;5.00;1.90;;;20.30;39.70;;;;;;4976833;28;20088;-80
2022/04/28 08:09:30;;;;;;;3.55;1.60;;;20.30;39.70;;;;;;4959587;28;20509;-80
2022/04/28 08:11:56;;;;;;;3.78;1.60;;;20.30;39.70;;;;;;4976210;28;20046;-81
2022/04/28 08:14:24;;;;;;;4.47;2.00;;;20.30;39.50;;;;;;4974405;28;20097;-80
2022/04/28 08:16:54;;;;;;;4.40;1.90;;;20.30;39.50;;;;;;4978221;28;20561;-81
2022/04/28 08:19:20;;;;;;;4.95;2.15;;;20.40;39.50;;;;;;4955852;28;20045;-78
2022/04/28 08:21:47;;;;;;;2.33;1.80;;;20.30;39.90;;;;;;4966682;28;20355;-79
2022/04/28 08:24:13;;;;;;;3.75;1.98;;;20.30;39.50;;;;;;4974484;28;20073;-78
2022/04/28 08:26:38;;;;;;;4.45;1.80;;;20.40;39.60;;;;;;4977522;28;20588;-79
2022/04/28 08:29:04;;;;;;;5.90;2.30;;;20.30;39.50;;;;;;4957182;28;20038;-78
2022/04/28 08:31:30;;;;;;;5.65;2.25;;;20.40;39.50;;;;;;4956855;28;20038;-82
2022/04/28 08:33:56;;;;;;;5.18;2.55;;;20.40;39.20;;;;;;4977477;28;20119;-83
2022/04/28 08:36:22;;;;;;;6.20;2.33;;;20.40;39.00;;;;;;4962460;28;20067;-83
2022/04/28 08:38:48;;;;;;;6.43;2.03;;;20.30;38.90;;;;;;4976922;28;20066;-84
2022/04/28 08:41:23;;;;;;;6.53;2.53;;;20.30;39.00;;;;;;4975673;28;20051;-84
2022/04/28 08:43:49;;;;;;;8.77;2.83;;;20.30;38.90;;;;;;4975800;28;20122;-81
2022/04/28 08:48:59;;;;;;;4.15;2.10;;;20.20;38.90;;;;;;4977106;28;20054;-85
2022/04/28 08:51:26;;;;;;;5.97;2.13;;;20.20;39.10;;;;;;4961375;28;20418;-85
2022/04/28 08:53:52;;;;;;;4.78;2.00;;;20.30;39.30;;;;;;4980539;28;20062;-92
2022/04/28 08:56:21;;;;;;;3.45;1.80;;;20.30;39.50;;;;;;4967628;28;20421;-89
2022/04/28 08:58:47;;;;;;;6.53;1.85;;;20.30;39.50;;;;;;4976554;28;20051;-88
2022/04/28 09:01:14;;;;;;;11.93;2.17;;;20.30;39.50;;;;;;4977136;28;20110;-88
2022/04/28 09:03:41;;;;;;;4.47;1.88;;;20.30;39.70;;;;;;4975954;28;20046;-88
2022/04/28 09:06:19;;;;;;;5.00;1.85;;;20.40;39.80;;;;;;4968697;28;20117;-87
2022/04/28 09:08:45;;;;;;;5.30;1.85;;;20.40;40.00;;;;;;4976525;28;20112;-87
2022/04/28 09:11:22;;;;;;;4.93;1.63;;;20.30;39.90;;;;;;4973809;28;20070;-86
2022/04/28 09:14:11;;;;;;;2.67;1.60;;;20.40;40.00;;;;;;4957488;28;20395;-87
2022/04/28 09:16:46;;;;;;;2.30;1.70;;;20.40;40.00;;;;;;4977217;28;20121;-90
2022/04/28 09:19:23;;;;;;;3.53;1.42;;;20.40;40.00;;;;;;4963375;28;20057;-89
2022/04/28 09:21:54;;;;;;;6.60;1.77;;;20.40;40.70;;;;;;4967766;28;20039;-89
2022/04/28 09:24:24;;;;;;;;;;;20.40;40.00;;;;;;4978517;28;20053;-87
2022/04/28 09:26:53;;;;;;;5.18;1.70;;;20.40;40.00;;;;;;4959071;28;19925;-87
2022/04/28 09:29:20;;;;;;;4.25;1.83;;;20.30;40.00;;;;;;4968769;28;20053;-87
2022/04/28 09:31:50;;;;;;;4.40;1.95;;;20.40;40.10;;;;;;4976641;28;20039;-87
2022/04/28 09:34:18;;;;;;;5.38;2.20;;;20.40;40.20;;;;;;4976345;28;20398;-88
2022/04/28 09:36:45;;;;;;;3.28;1.83;;;20.40;40.20;;;;;;4961846;28;20045;-91
2022/04/28 09:42:33;;;;;;;5.90;2.05;;;20.40;40.40;;;;;;4930570;29;20471;-87
2022/04/28 09:45:05;;;;;;;5.15;1.85;;;20.40;40.50;;;;;;4916687;29;20058;-91
2022/04/28 09:47:38;;;;;;;4.85;1.80;;;20.40;40.60;;;;;;4942652;28;20137;-91
2022/04/28 09:50:15;;;;;;;5.50;2.00;;;20.40;40.60;;;;;;4963045;28;20101;-91
2022/04/28 09:52:45;;;;;;;4.07;1.92;;;20.30;40.70;;;;;;4963060;28;20042;-91
2022/04/28 09:55:11;;;;;;;3.10;1.70;;;20.40;40.80;;;;;;4981550;28;20034;-90
2022/04/28 09:57:37;;;;;;;3.92;1.80;;;20.40;41.00;;;;;;4963531;28;20042;-89
2022/04/28 10:00:07;;;;;;;3.85;1.77;;;20.40;41.00;;;;;;4966553;28;20054;-92
2022/04/28 10:02:35;;;;;;;3.58;1.90;;;20.40;41.00;;;;;;4970220;28;20058;-90
2022/04/28 10:05:02;;;;;;;3.67;1.73;;;20.30;41.80;;;;;;4971462;28;20050;-89
2022/04/28 10:07:28;;;;;;;3.35;1.73;;;20.40;41.30;;;;;;4960853;28;20123;-89
2022/04/28 10:09:55;;;;;;;2.72;1.60;;;20.30;41.30;;;;;;4961681;28;20126;-89
2022/04/28 10:12:25;;;;;;;4.18;1.85;;;20.40;41.20;;;;;;4962684;28;20082;-89
2022/04/28 10:14:56;;;;;;;3.72;1.67;;;20.40;41.30;;;;;;4963940;28;20121;-91
2022/04/28 10:17:32;;;;;;;3.55;1.65;;;20.30;41.30;;;;;;4970034;28;20066;-89
2022/04/28 10:20:25;;;;;;;3.55;1.77;;;20.40;41.40;;;;;;4968670;28;20046;-89
2022/04/28 10:22:52;;;;;;;4.57;1.60;;;20.40;41.30;;;;;;4957550;28;20137;-87
2022/04/28 10:34:14;;;;;;;6.32;1.63;;;20.30;41.60;;;;;;4976966;28;20042;-88
2022/04/28 10:37:00;;;;;;;3.90;1.45;;;20.40;41.70;;;;;;4959358;28;20038;-89
2022/04/28 10:39:45;;;;;;;4.38;1.80;;;20.40;41.80;;;;;;4963633;28;20775;-89
2022/04/28 10:42:35;;;;;;;6.97;1.92;;;20.30;41.30;;;;;;4960453;28;20409;-89
2022/04/28 10:45:04;;;;;;;3.30;1.40;;;20.30;41.00;;;;;;4932180;28;20061;-87
2022/04/28 10:47:35;;;;;;;3.97;1.80;;;20.40;41.10;;;;;;4975242;28;20046;-89
2022/04/28 10:50:02;;;;;;;3.65;1.88;;;20.40;40.90;;;;;;4974065;28;20038;-89
2022/04/28 10:52:28;;;;;;;3.45;2.03;;;20.40;40.70;;;;;;4961618;28;20042;-85
2022/04/28 10:54:58;;;;;;;4.70;1.60;;;20.40;40.60;;;;;;4959573;28;20478;-86
2022/04/28 10:57:29;;;;;;;3.30;1.45;;;20.40;40.60;;;;;;4973141;28;20046;-87
2022/04/28 10:59:55;;;;;;;5.65;1.90;;;20.40;40.60;;;;;;4957129;28;20053;-84
2022/04/28 11:02:21;;;;;;;6.32;2.83;;;20.40;40.90;;;;;;4973894;28;20038;-85
2022/04/28 11:05:00;;;;;;;4.70;2.72;;;20.40;40.90;;;;;;4959500;28;20128;-85
2022/04/28 11:07:29;;;;;;;5.65;2.55;;;20.40;41.10;;;;;;4958552;28;20084;-85
2022/04/28 11:10:01;;;;;;;4.80;2.17;;;20.40;41.30;;;;;;4963638;28;20056;-85
2022/04/28 11:12:41;;;;;;;4.15;2.17;;;20.40;41.20;;;;;;4972926;28;20483;-85
2022/04/28 11:15:10;;;;;;;6.68;2.30;;;20.40;41.30;;;;;;4974027;28;20042;-85
2022/04/28 11:17:37;;;;;;;4.13;1.75;;;20.40;41.40;;;;;;4972417;28;20043;-85
2022/04/28 11:20:07;;;;;;;3.83;1.65;;;20.40;41.40;;;;;;4979746;28;20406;-85
2022/04/28 11:22:34;;;;;;;4.63;1.77;;;20.50;41.50;;;;;;4958989;28;20093;-86
2022/04/28 11:24:59;;;;;;;4.15;1.65;;;20.40;41.30;;;;;;4964682;28;20388;-85
2022/04/28 11:27:29;;;;;;;5.60;1.77;;;20.50;41.30;;;;;;4961680;28;20055;-86
2022/04/28 11:29:57;;;;;;;5.00;1.88;;;20.50;41.30;;;;;;4961881;28;20045;-88
2022/04/28 11:32:23;;;;;;;5.97;1.80;;;20.50;41.00;;;;;;4970487;28;20042;-86
2022/04/28 11:34:52;;;;;;;4.38;1.58;;;20.50;41.00;;;;;;4958854;28;20039;-86
2022/04/28 11:37:23;;;;;;;5.35;1.70;;;20.50;41.20;;;;;;4963565;28;20602;-85
2022/04/28 11:39:51;;;;;;;5.55;1.80;;;20.50;41.10;;;;;;4962417;28;20472;-85
2022/04/28 11:42:18;;;;;;;4.60;1.55;;;20.50;41.00;;;;;;4957463;28;20053;-86
2022/04/28 11:44:55;;;;;;;4.53;1.50;;;20.50;41.10;;;;;;4963067;28;20450;-86
2022/04/28 11:47:23;;;;;;;6.18;1.70;;;20.50;41.10;;;;;;4972554;28;20240;-86
2022/04/28 11:49:59;;;;;;;4.05;1.80;;;20.50;41.00;;;;;;4971281;28;20294;-86
2022/04/28 11:52:33;;;;;;;8.90;2.10;;;20.50;41.00;;;;;;4955667;28;20317;-85
2022/04/28 11:55:08;;;;;;;3.05;1.50;;;20.50;40.90;;;;;;4964518;28;20046;-86
2022/04/28 11:57:39;;;;;;;4.88;1.58;;;20.50;41.10;;;;;;4964631;28;20042;-88
2022/04/28 12:00:11;;;;;;;4.65;1.63;;;20.50;41.10;;;;;;4958038;28;20030;-89
2022/04/28 12:02:38;;;;;;;4.93;1.60;;;20.50;41.00;;;;;;4973329;28;20046;-92
2022/04/28 12:05:19;;;;;;;5.38;1.88;;;20.50;41.00;;;;;;4952911;28;20173;-86
2022/04/28 12:07:52;;;;;;;4.70;1.63;;;20.50;41.00;;;;;;4964329;28;20038;-83
2022/04/28 12:16:13;;;;;;;7.50;1.55;;;20.50;41.30;;;;;;4970541;28;20046;-85
2022/04/28 12:21:32;;;;;;;3.85;1.23;;;20.50;41.20;;;;;;4972393;28;20046;-88
2022/04/28 12:24:00;;;;;;;3.83;1.50;;;20.50;41.10;;;;;;4956224;28;20171;-86
2022/04/28 12:26:31;;;;;;;2.80;1.60;;;20.50;41.00;;;;;;4973990;28;20042;-86
2022/04/28 12:29:16;;;;;;;7.95;1.48;;;20.50;40.90;;;;;;4971722;28;20046;-87
2022/04/28 12:31:43;;;;;;;5.00;1.55;;;20.50;40.90;;;;;;4976470;28;20043;-84
2022/04/28 12:34:11;;;;;;;4.75;1.48;;;20.50;41.00;;;;;;4973827;28;20049;-88
2022/04/28 12:36:57;;;;;;;3.30;1.17;;;20.50;41.10;;;;;;4957950;28;20042;-86
2022/04/28 12:39:24;;;;;;;5.40;1.70;;;20.50;41.10;;;;;;4957362;28;20161;-86
2022/04/28 12:41:51;;;;;;;4.00;1.50;;;20.50;41.00;;;;;;4975121;28;20065;-87
2022/04/28 12:44:17;;;;;;;3.72;1.55;;;20.50;40.90;;;;;;4973393;28;20517;-86
2022/04/28 12:46:45;;;;;;;3.92;1.40;;;20.50;40.70;;;;;;4958255;28;20237;-86
2022/04/28 12:49:17;;;;;;;4.90;1.70;;;20.60;40.80;;;;;;4963383;28;20065;-87
2022/04/28 12:51:48;;;;;;;3.33;1.20;;;20.50;40.80;;;;;;4962063;28;20462;-86
2022/04/28 12:54:22;;;;;;;3.33;1.38;;;20.50;40.90;;;;;;4976916;28;20149;-85
2022/04/28 12:56:57;;;;;;;3.28;1.42;;;20.60;40.90;;;;;;4962176;28;20038;-85
2022/04/28 12:59:28;;;;;;;3.15;1.45;;;20.60;41.00;;;;;;4977033;28;20759;-84
2022/04/28 13:01:54;;;;;;;3.83;1.30;;;20.60;41.10;;;;;;4977342;28;20054;-86
2022/04/28 13:04:22;;;;;;;5.90;1.55;;;20.50;41.10;;;;;;4977098;28;20535;-87
2022/04/28 13:06:49;;;;;;;3.40;1.70;;;20.60;41.20;;;;;;4961381;28;20112;-85
2022/04/28 13:09:16;;;;;;;3.63;1.45;;;20.60;41.20;;;;;;4976653;28;20046;-86
2022/04/28 13:11:47;;;;;;;3.60;1.60;;;20.60;41.20;;;;;;4967626;28;20038;-86
2022/04/28 13:14:16;;;;;;;4.22;1.70;;;20.60;41.20;;;;;;4978980;28;20082;-85
2022/04/28 13:16:42;;;;;;;3.55;1.40;;;20.60;41.20;;;;;;4976419;28;20050;-85
2022/04/28 13:19:10;;;;;;;3.08;1.50;;;20.60;41.20;;;;;;4960852;28;20056;-86
2022/04/28 13:21:37;;;;;;;3.33;1.10;;;20.60;41.20;;;;;;4976458;28;20047;-86
2022/04/28 13:24:03;;;;;;;5.53;1.65;;;20.60;41.30;;;;;;4967502;28;20353;-86
2022/04/28 13:26:30;;;;;;;3.30;1.50;;;20.70;41.30;;;;;;4960592;28;20038;-86
2022/04/28 13:28:57;;;;;;;5.15;1.60;;;20.70;41.30;;;;;;4960682;28;20100;-86
2022/04/28 13:31:22;;;;;;;3.22;1.35;;;20.70;41.30;;;;;;4967076;28;20038;-85
2022/04/28 13:33:50;;;;;;;4.15;1.50;;;20.70;41.30;;;;;;4965557;28;20038;-88